sensor_id;sensor_type;location;lat;lon;timestamp;pressure;altitude;pressure_sealevel;temperature;humidity
21520;BME280;10921;53.614;9.882;2022-12-20T00:00:50;101188.94;;;9.03;79.63
21520;BME280;10921;53.614;9.882;2022-12-20T00:03:17;101178.28;;;9.03;79.31
21520;BME280;10921;53.614;9.882;2022-12-20T00:05:46;101159.94;;;9.00;79.19
21520;BME280;10921;53.614;9.882;2022-12-20T00:08:12;101165.47;;;9.08;78.83
21520;BME280;10921;53.614;9.882;2022-12-20T00:10:41;101176.47;;;9.14;79.18
21520;BME280;10921;53.614;9.882;2022-12-20T00:13:09;101183.09;;;9.20;78.75
21520;BME280;10921;53.614;9.882;2022-12-20T00:15:35;101173.41;;;9.19;78.86
21520;BME280;10921;53.614;9.882;2022-12-20T00:18:03;101140.16;;;9.02;78.58
21520;BME280;10921;53.614;9.882;2022-12-20T00:20:30;101139.41;;;9.23;78.16
21520;BME280;10921;53.614;9.882;2022-12-20T00:22:56;101152.25;;;9.17;78.45
21520;BME280;10921;53.614;9.882;2022-12-20T00:25:22;101170.75;;;9.30;78.29
21520;BME280;10921;53.614;9.882;2022-12-20T00:27:49;101166.13;;;9.32;78.42
21520;BME280;10921;53.614;9.882;2022-12-20T00:30:17;101165.31;;;9.32;78.27
21520;BME280;10921;53.614;9.882;2022-12-20T00:32:44;101157.75;;;9.37;77.98
21520;BME280;10921;53.614;9.882;2022-12-20T00:35:11;101164.06;;;9.36;77.93
21520;BME280;10921;53.614;9.882;2022-12-20T00:37:38;101167.13;;;9.31;78.00
21520;BME280;10921;53.614;9.882;2022-12-20T00:40:05;101158.59;;;9.37;78.09
21520;BME280;10921;53.614;9.882;2022-12-20T00:42:32;101157.03;;;9.35;78.15
21520;BME280;10921;53.614;9.882;2022-12-20T00:44:58;101150.13;;;9.32;77.90
21520;BME280;10921;53.614;9.882;2022-12-20T00:47:25;101152.56;;;9.35;78.10
21520;BME280;10921;53.614;9.882;2022-12-20T00:49:51;101147.22;;;9.35;78.25
21520;BME280;10921;53.614;9.882;2022-12-20T00:52:18;101153.53;;;9.34;78.12
21520;BME280;10921;53.614;9.882;2022-12-20T00:54:44;101147.69;;;9.40;77.78
21520;BME280;10921;53.614;9.882;2022-12-20T00:57:11;101132.00;;;9.26;78.02
21520;BME280;10921;53.614;9.882;2022-12-20T00:59:37;101146.97;;;9.38;78.27
21520;BME280;10921;53.614;9.882;2022-12-20T01:02:04;101138.03;;;9.39;78.48
21520;BME280;10921;53.614;9.882;2022-12-20T01:04:31;101133.06;;;9.35;78.19
21520;BME280;10921;53.614;9.882;2022-12-20T01:06:57;101132.50;;;9.31;78.39
21520;BME280;10921;53.614;9.882;2022-12-20T01:09:23;101102.50;;;9.18;78.33
21520;BME280;10921;53.614;9.882;2022-12-20T01:11:50;101131.91;;;9.28;78.52
21520;BME280;10921;53.614;9.882;2022-12-20T01:14:16;101137.94;;;9.30;78.57
21520;BME280;10921;53.614;9.882;2022-12-20T01:16:45;101145.22;;;9.28;78.93
21520;BME280;10921;53.614;9.882;2022-12-20T01:19:14;101138.06;;;9.28;79.20
21520;BME280;10921;53.614;9.882;2022-12-20T01:21:41;101144.13;;;9.30;78.90
21520;BME280;10921;53.614;9.882;2022-12-20T01:24:12;101145.66;;;9.33;79.31
21520;BME280;10921;53.614;9.882;2022-12-20T01:26:39;101144.13;;;9.30;79.22
21520;BME280;10921;53.614;9.882;2022-12-20T01:29:06;101141.06;;;9.35;79.17
21520;BME280;10921;53.614;9.882;2022-12-20T01:31:32;101143.84;;;9.33;79.12
21520;BME280;10921;53.614;9.882;2022-12-20T01:34:00;101136.19;;;9.40;79.36
21520;BME280;10921;53.614;9.882;2022-12-20T01:36:29;101101.28;;;9.22;79.29
21520;BME280;10921;53.614;9.882;2022-12-20T01:39:05;101141.88;;;9.46;79.56
21520;BME280;10921;53.614;9.882;2022-12-20T01:41:35;101131.91;;;9.48;79.16
21520;BME280;10921;53.614;9.882;2022-12-20T01:44:54;101133.38;;;9.52;79.22
21520;BME280;10921;53.614;9.882;2022-12-20T01:46:53;101136.75;;;9.55;78.80
21520;BME280;10921;53.614;9.882;2022-12-20T01:52:20;101117.06;;;9.67;79.08
21520;BME280;10921;53.614;9.882;2022-12-20T01:54:57;101086.50;;;9.50;79.05
21520;BME280;10921;53.614;9.882;2022-12-20T01:57:35;101122.59;;;9.75;78.62
21520;BME280;10921;53.614;9.882;2022-12-20T02:00:05;101119.81;;;9.76;78.66
21520;BME280;10921;53.614;9.882;2022-12-20T02:02:34;101118.00;;;9.77;78.52
21520;BME280;10921;53.614;9.882;2022-12-20T02:05:01;101115.78;;;9.82;78.58
21520;BME280;10921;53.614;9.882;2022-12-20T02:07:30;101103.25;;;9.73;78.50
21520;BME280;10921;53.614;9.882;2022-12-20T02:09:58;101120.25;;;9.81;78.72
21520;BME280;10921;53.614;9.882;2022-12-20T02:12:31;101127.75;;;9.87;78.81
21520;BME280;10921;53.614;9.882;2022-12-20T02:18:20;101117.72;;;10.01;78.73
21520;BME280;10921;53.614;9.882;2022-12-20T02:21:07;101118.69;;;10.00;78.90
21520;BME280;10921;53.614;9.882;2022-12-20T02:32:16;101098.69;;;10.05;78.46
21520;BME280;10921;53.614;9.882;2022-12-20T02:34:44;101080.66;;;9.98;78.35
21520;BME280;10921;53.614;9.882;2022-12-20T02:37:12;101101.78;;;10.10;78.47
21520;BME280;10921;53.614;9.882;2022-12-20T02:39:39;101104.13;;;10.04;78.75
21520;BME280;10921;53.614;9.882;2022-12-20T02:42:08;101094.94;;;10.17;78.53
21520;BME280;10921;53.614;9.882;2022-12-20T02:44:38;101095.56;;;10.21;78.53
21520;BME280;10921;53.614;9.882;2022-12-20T02:47:30;101095.13;;;10.26;78.78
21520;BME280;10921;53.614;9.882;2022-12-20T02:49:58;101081.25;;;10.22;78.55
21520;BME280;10921;53.614;9.882;2022-12-20T02:52:26;101088.69;;;10.28;78.50
21520;BME280;10921;53.614;9.882;2022-12-20T02:54:56;101082.25;;;10.31;78.61
21520;BME280;10921;53.614;9.882;2022-12-20T02:57:32;101078.22;;;10.36;78.90
21520;BME280;10921;53.614;9.882;2022-12-20T03:00:07;101078.94;;;10.38;79.01
21520;BME280;10921;53.614;9.882;2022-12-20T03:02:35;101085.94;;;10.39;78.55
21520;BME280;10921;53.614;9.882;2022-12-20T03:05:26;101066.00;;;10.34;78.56
21520;BME280;10921;53.614;9.882;2022-12-20T03:07:53;101069.25;;;10.47;78.51
21520;BME280;10921;53.614;9.882;2022-12-20T03:10:20;101039.25;;;10.24;78.62
21520;BME280;10921;53.614;9.882;2022-12-20T03:12:47;101061.97;;;10.49;78.59
21520;BME280;10921;53.614;9.882;2022-12-20T03:15:14;101074.16;;;10.42;78.65
21520;BME280;10921;53.614;9.882;2022-12-20T03:17:40;101073.09;;;10.54;78.33
21520;BME280;10921;53.614;9.882;2022-12-20T03:20:07;101072.94;;;10.55;78.44
21520;BME280;10921;53.614;9.882;2022-12-20T03:22:36;101087.84;;;10.58;78.50
21520;BME280;10921;53.614;9.882;2022-12-20T03:25:04;101075.91;;;10.62;78.44
21520;BME280;10921;53.614;9.882;2022-12-20T03:27:30;101076.50;;;10.66;78.17
21520;BME280;10921;53.614;9.882;2022-12-20T03:29:57;101075.22;;;10.70;78.42
21520;BME280;10921;53.614;9.882;2022-12-20T03:32:23;101081.41;;;10.70;78.61
21520;BME280;10921;53.614;9.882;2022-12-20T03:34:50;101082.41;;;10.69;78.74
21520;BME280;10921;53.614;9.882;2022-12-20T03:37:16;101069.47;;;10.65;78.86
21520;BME280;10921;53.614;9.882;2022-12-20T03:39:43;101075.38;;;10.68;78.54
21520;BME280;10921;53.614;9.882;2022-12-20T03:42:09;101082.81;;;10.74;78.96
21520;BME280;10921;53.614;9.882;2022-12-20T03:44:36;101064.41;;;10.71;78.50
21520;BME280;10921;53.614;9.882;2022-12-20T03:47:02;101060.75;;;10.72;78.59
21520;BME280;10921;53.614;9.882;2022-12-20T03:49:29;101068.69;;;10.83;78.71
21520;BME280;10921;53.614;9.882;2022-12-20T03:51:55;101080.75;;;10.87;78.37
21520;BME280;10921;53.614;9.882;2022-12-20T03:54:22;101054.34;;;10.84;78.55
21520;BME280;10921;53.614;9.882;2022-12-20T03:56:48;101057.81;;;10.85;78.62
21520;BME280;10921;53.614;9.882;2022-12-20T03:59:15;101042.25;;;10.80;78.49
21520;BME280;10921;53.614;9.882;2022-12-20T04:01:41;101061.25;;;10.97;78.25
21520;BME280;10921;53.614;9.882;2022-12-20T04:04:11;101059.28;;;10.99;78.34
21520;BME280;10921;53.614;9.882;2022-12-20T04:06:37;101053.19;;;10.87;78.19
21520;BME280;10921;53.614;9.882;2022-12-20T04:09:04;101062.63;;;10.91;78.34
21520;BME280;10921;53.614;9.882;2022-12-20T04:11:31;101067.28;;;10.99;78.11
21520;BME280;10921;53.614;9.882;2022-12-20T04:13:57;101061.66;;;11.02;78.08
21520;BME280;10921;53.614;9.882;2022-12-20T04:16:27;101062.22;;;11.05;78.15
21520;BME280;10921;53.614;9.882;2022-12-20T04:18:54;101066.44;;;10.98;77.91
21520;BME280;10921;53.614;9.882;2022-12-20T04:21:22;101058.56;;;11.06;78.06
21520;BME280;10921;53.614;9.882;2022-12-20T04:23:50;101022.84;;;10.88;77.86
21520;BME280;10921;53.614;9.882;2022-12-20T04:26:16;101060.41;;;11.06;77.83
21520;BME280;10921;53.614;9.882;2022-12-20T04:28:43;101052.38;;;11.06;77.72
21520;BME280;10921;53.614;9.882;2022-12-20T04:31:09;101062.78;;;11.09;77.80
21520;BME280;10921;53.614;9.882;2022-12-20T04:33:37;101049.00;;;11.04;77.97
21520;BME280;10921;53.614;9.882;2022-12-20T04:36:04;101052.66;;;11.03;78.18
21520;BME280;10921;53.614;9.882;2022-12-20T04:38:30;101045.63;;;11.02;78.13
21520;BME280;10921;53.614;9.882;2022-12-20T04:40:57;101049.16;;;11.02;78.05
21520;BME280;10921;53.614;9.882;2022-12-20T04:43:23;101038.06;;;11.07;78.24
21520;BME280;10921;53.614;9.882;2022-12-20T04:45:51;101050.56;;;11.06;78.32
21520;BME280;10921;53.614;9.882;2022-12-20T04:48:19;101053.94;;;11.08;78.21
21520;BME280;10921;53.614;9.882;2022-12-20T04:51:05;101036.63;;;11.03;78.18
21520;BME280;10921;53.614;9.882;2022-12-20T04:53:32;101050.56;;;11.06;78.66
21520;BME280;10921;53.614;9.882;2022-12-20T04:56:25;101041.69;;;11.06;79.35
21520;BME280;10921;53.614;9.882;2022-12-20T04:58:55;101048.31;;;11.02;79.80
21520;BME280;10921;53.614;9.882;2022-12-20T05:01:22;101046.34;;;10.94;80.69
21520;BME280;10921;53.614;9.882;2022-12-20T05:03:49;101052.66;;;10.93;81.07
21520;BME280;10921;53.614;9.882;2022-12-20T05:06:16;101053.63;;;10.92;81.03
21520;BME280;10921;53.614;9.882;2022-12-20T05:08:42;101043.09;;;10.81;82.04
21520;BME280;10921;53.614;9.882;2022-12-20T05:11:09;101043.38;;;10.78;82.36
21520;BME280;10921;53.614;9.882;2022-12-20T05:13:36;101028.72;;;10.72;82.88
21520;BME280;10921;53.614;9.882;2022-12-20T05:16:02;100993.88;;;10.54;83.16
21520;BME280;10921;53.614;9.882;2022-12-20T05:18:29;101037.19;;;10.68;83.44
21520;BME280;10921;53.614;9.882;2022-12-20T05:20:57;101041.09;;;10.64;84.17
21520;BME280;10921;53.614;9.882;2022-12-20T05:23:43;101026.19;;;10.61;83.99
21520;BME280;10921;53.614;9.882;2022-12-20T05:26:31;101017.06;;;10.54;84.52
21520;BME280;10921;53.614;9.882;2022-12-20T05:28:58;101021.25;;;10.47;84.92
21520;BME280;10921;53.614;9.882;2022-12-20T05:31:24;101022.22;;;10.46;85.21
21520;BME280;10921;53.614;9.882;2022-12-20T05:33:51;101025.03;;;10.44;85.79
21520;BME280;10921;53.614;9.882;2022-12-20T05:36:17;101012.25;;;10.38;85.78
21520;BME280;10921;53.614;9.882;2022-12-20T05:38:44;101022.22;;;10.46;85.78
21520;BME280;10921;53.614;9.882;2022-12-20T05:41:11;101018.84;;;10.44;86.11
21520;BME280;10921;53.614;9.882;2022-12-20T05:43:37;101015.19;;;10.45;86.09
21520;BME280;10921;53.614;9.882;2022-12-20T05:46:04;101017.16;;;10.43;86.51
21520;BME280;10921;53.614;9.882;2022-12-20T05:48:30;101008.56;;;10.39;86.95
21520;BME280;10921;53.614;9.882;2022-12-20T05:50:57;101012.53;;;10.45;86.77
21520;BME280;10921;53.614;9.882;2022-12-20T05:53:24;101015.34;;;10.43;86.90
21520;BME280;10921;53.614;9.882;2022-12-20T05:55:52;101009.16;;;10.43;87.28
21520;BME280;10921;53.614;9.882;2022-12-20T05:58:19;101013.22;;;10.37;87.53
21520;BME280;10921;53.614;9.882;2022-12-20T06:00:46;101015.47;;;10.42;87.75
21520;BME280;10921;53.614;9.882;2022-12-20T06:03:13;101012.09;;;10.40;87.74
21520;BME280;10921;53.614;9.882;2022-12-20T06:05:43;101001.97;;;10.34;87.92
21520;BME280;10921;53.614;9.882;2022-12-20T06:08:11;100979.81;;;10.43;88.04
21520;BME280;10921;53.614;9.882;2022-12-20T06:10:39;101026.72;;;10.45;87.88
21520;BME280;10921;53.614;9.882;2022-12-20T06:13:07;101026.72;;;10.45;88.03
21520;BME280;10921;53.614;9.882;2022-12-20T06:15:34;101037.00;;;10.50;88.36
21520;BME280;10921;53.614;9.882;2022-12-20T06:18:01;101032.91;;;10.46;88.90
21520;BME280;10921;53.614;9.882;2022-12-20T06:20:28;101027.28;;;10.49;88.86
21520;BME280;10921;53.614;9.882;2022-12-20T06:22:54;101022.94;;;10.48;88.83
21520;BME280;10921;53.614;9.882;2022-12-20T06:25:20;101006.94;;;10.48;89.42
21520;BME280;10921;53.614;9.882;2022-12-20T06:27:48;101011.03;;;10.52;89.89
21520;BME280;10921;53.614;9.882;2022-12-20T06:30:15;100994.84;;;10.44;89.89
21520;BME280;10921;53.614;9.882;2022-12-20T06:32:42;100995.72;;;10.54;90.93
21520;BME280;10921;53.614;9.882;2022-12-20T06:35:08;101012.84;;;10.61;90.77
21520;BME280;10921;53.614;9.882;2022-12-20T06:37:35;100988.97;;;10.50;90.82
21520;BME280;10921;53.614;9.882;2022-12-20T06:40:04;101007.94;;;10.66;90.60
21520;BME280;10921;53.614;9.882;2022-12-20T06:42:31;100998.94;;;10.57;90.42
21520;BME280;10921;53.614;9.882;2022-12-20T06:44:57;101018.78;;;10.74;89.92
21520;BME280;10921;53.614;9.882;2022-12-20T06:47:24;101009.78;;;10.75;89.84
21520;BME280;10921;53.614;9.882;2022-12-20T06:49:50;100994.03;;;10.72;89.74
21520;BME280;10921;53.614;9.882;2022-12-20T06:52:17;101004.03;;;10.80;89.53
21520;BME280;10921;53.614;9.882;2022-12-20T06:54:43;101015.41;;;10.82;89.46
21520;BME280;10921;53.614;9.882;2022-12-20T06:57:09;101018.81;;;10.84;89.02
21520;BME280;10921;53.614;9.882;2022-12-20T06:59:36;101018.38;;;10.79;89.49
21520;BME280;10921;53.614;9.882;2022-12-20T07:02:02;101019.91;;;10.81;89.50
21520;BME280;10921;53.614;9.882;2022-12-20T07:04:30;101028.19;;;10.88;89.07
21520;BME280;10921;53.614;9.882;2022-12-20T07:06:57;101011.59;;;10.75;89.33
21520;BME280;10921;53.614;9.882;2022-12-20T07:09:23;101034.38;;;10.88;89.14
21520;BME280;10921;53.614;9.882;2022-12-20T07:11:50;101040.69;;;10.87;89.35
21520;BME280;10921;53.614;9.882;2022-12-20T07:14:17;101046.47;;;10.92;88.92
21520;BME280;10921;53.614;9.882;2022-12-20T07:16:43;101039.19;;;10.95;88.84
21520;BME280;10921;53.614;9.882;2022-12-20T07:19:11;101042.13;;;10.91;89.17
21520;BME280;10921;53.614;9.882;2022-12-20T07:21:38;101004.88;;;10.80;89.41
21520;BME280;10921;53.614;9.882;2022-12-20T07:24:05;101030.06;;;10.97;89.04
21520;BME280;10921;53.614;9.882;2022-12-20T07:26:32;101025.69;;;10.96;89.08
21520;BME280;10921;53.614;9.882;2022-12-20T07:28:58;101021.47;;;10.93;89.64
21520;BME280;10921;53.614;9.882;2022-12-20T07:31:25;101005.59;;;10.92;89.00
21520;BME280;10921;53.614;9.882;2022-12-20T07:33:51;101005.44;;;10.93;88.85
21520;BME280;10921;53.614;9.882;2022-12-20T07:36:18;101009.41;;;10.99;88.74
21520;BME280;10921;53.614;9.882;2022-12-20T07:38:44;100994.91;;;10.92;88.33
21520;BME280;10921;53.614;9.882;2022-12-20T07:41:14;101010.25;;;11.00;88.85
21520;BME280;10921;53.614;9.882;2022-12-20T07:43:42;101015.28;;;11.03;88.84
21520;BME280;10921;53.614;9.882;2022-12-20T07:46:09;101011.91;;;11.01;88.72
21520;BME280;10921;53.614;9.882;2022-12-20T07:48:38;101018.25;;;11.00;88.98
21520;BME280;10921;53.614;9.882;2022-12-20T07:51:11;101015.97;;;11.05;89.42
21520;BME280;10921;53.614;9.882;2022-12-20T07:53:42;100996.72;;;10.91;89.10
21520;BME280;10921;53.614;9.882;2022-12-20T07:56:12;101000.13;;;10.84;89.33
21520;BME280;10921;53.614;9.882;2022-12-20T07:58:40;101017.25;;;11.01;89.32
21520;BME280;10921;53.614;9.882;2022-12-20T08:01:08;101000.81;;;10.96;89.06
21520;BME280;10921;53.614;9.882;2022-12-20T08:03:45;101005.31;;;11.05;88.93
21520;BME280;10921;53.614;9.882;2022-12-20T08:06:14;100998.41;;;11.02;88.40
21520;BME280;10921;53.614;9.882;2022-12-20T08:08:45;100998.97;;;11.06;88.58
21520;BME280;10921;53.614;9.882;2022-12-20T08:11:13;100998.28;;;11.04;88.39
21520;BME280;10921;53.614;9.882;2022-12-20T08:13:40;100966.09;;;10.76;88.56
21520;BME280;10921;53.614;9.882;2022-12-20T08:16:12;100997.56;;;11.02;88.20
21520;BME280;10921;53.614;9.882;2022-12-20T08:18:39;100983.94;;;11.05;88.14
21520;BME280;10921;53.614;9.882;2022-12-20T08:21:05;101000.66;;;11.07;87.92
21520;BME280;10921;53.614;9.882;2022-12-20T08:23:32;100995.06;;;11.10;87.77
21520;BME280;10921;53.614;9.882;2022-12-20T08:26:00;100989.44;;;11.13;87.38
21520;BME280;10921;53.614;9.882;2022-12-20T08:28:28;100931.81;;;10.81;86.95
21520;BME280;10921;53.614;9.882;2022-12-20T08:31:02;100973.94;;;11.16;87.00
21520;BME280;10921;53.614;9.882;2022-12-20T08:33:28;100983.94;;;11.24;86.43
21520;BME280;10921;53.614;9.882;2022-12-20T08:35:57;100979.56;;;11.23;86.02
21520;BME280;10921;53.614;9.882;2022-12-20T08:38:25;100950.91;;;11.06;85.70
21520;BME280;10921;53.614;9.882;2022-12-20T08:40:52;100973.81;;;11.27;85.46
21520;BME280;10921;53.614;9.882;2022-12-20T08:43:18;100973.50;;;11.31;85.02
21520;BME280;10921;53.614;9.882;2022-12-20T08:45:51;100966.06;;;11.34;84.92
21520;BME280;10921;53.614;9.882;2022-12-20T08:48:17;100969.00;;;11.41;84.28
21520;BME280;10921;53.614;9.882;2022-12-20T08:50:44;100956.34;;;11.33;83.62
21520;BME280;10921;53.614;9.882;2022-12-20T08:53:10;100958.00;;;11.53;83.33
21520;BME280;10921;53.614;9.882;2022-12-20T08:55:37;100935.81;;;11.34;82.82
21520;BME280;10921;53.614;9.882;2022-12-20T08:58:03;100943.78;;;11.53;82.65
21520;BME280;10921;53.614;9.882;2022-12-20T09:00:30;100955.59;;;11.60;82.17
21520;BME280;10921;53.614;9.882;2022-12-20T09:02:56;100951.66;;;11.54;81.89
21520;BME280;10921;53.614;9.882;2022-12-20T09:05:23;100954.88;;;11.68;81.75
21520;BME280;10921;53.614;9.882;2022-12-20T09:07:49;100960.91;;;11.70;81.60
21520;BME280;10921;53.614;9.882;2022-12-20T09:10:16;100957.09;;;11.72;81.36
21520;BME280;10921;53.614;9.882;2022-12-20T09:12:42;100960.75;;;11.81;80.89
21520;BME280;10921;53.614;9.882;2022-12-20T09:15:09;100957.78;;;11.84;80.58
21520;BME280;10921;53.614;9.882;2022-12-20T09:17:36;100955.66;;;11.87;80.38
21520;BME280;10921;53.614;9.882;2022-12-20T09:20:03;100962.94;;;11.95;80.32
21520;BME280;10921;53.614;9.882;2022-12-20T09:22:30;100957.22;;;11.90;79.80
21520;BME280;10921;53.614;9.882;2022-12-20T09:24:57;100957.44;;;11.96;79.72
21520;BME280;10921;53.614;9.882;2022-12-20T09:27:23;100939.78;;;11.86;79.66
21520;BME280;10921;53.614;9.882;2022-12-20T09:29:50;100956.59;;;12.06;79.19
21520;BME280;10921;53.614;9.882;2022-12-20T09:32:16;100968.75;;;12.18;79.28
21520;BME280;10921;53.614;9.882;2022-12-20T09:34:42;100947.56;;;12.07;78.75
21520;BME280;10921;53.614;9.882;2022-12-20T09:37:09;100966.63;;;12.21;78.40
21520;BME280;10921;53.614;9.882;2022-12-20T09:39:36;100976.72;;;12.27;78.29
21520;BME280;10921;53.614;9.882;2022-12-20T09:42:06;100983.19;;;12.35;78.26
21520;BME280;10921;53.614;9.882;2022-12-20T09:44:34;100965.50;;;12.42;77.92
21520;BME280;10921;53.614;9.882;2022-12-20T09:47:15;100972.69;;;12.41;78.17
21520;BME280;10921;53.614;9.882;2022-12-20T09:49:46;100971.16;;;12.39;78.31
21520;BME280;10921;53.614;9.882;2022-12-20T09:54:53;100946.44;;;12.27;79.27
21520;BME280;10921;53.614;9.882;2022-12-20T10:00:13;100967.31;;;12.23;80.79
21520;BME280;10921;53.614;9.882;2022-12-20T10:02:40;100958.22;;;12.16;81.22
21520;BME280;10921;53.614;9.882;2022-12-20T10:05:34;100957.09;;;12.09;82.19
21520;BME280;10921;53.614;9.882;2022-12-20T10:10:50;100943.53;;;11.93;84.35
21520;BME280;10921;53.614;9.882;2022-12-20T10:18:59;100944.28;;;11.85;85.61
21520;BME280;10921;53.614;9.882;2022-12-20T10:24:24;100926.25;;;11.87;86.08
21520;BME280;10921;53.614;9.882;2022-12-20T10:26:52;100926.13;;;11.89;85.31
21520;BME280;10921;53.614;9.882;2022-12-20T10:29:20;100890.72;;;11.68;84.93
21520;BME280;10921;53.614;9.882;2022-12-20T10:31:58;100918.88;;;11.99;85.87
21520;BME280;10921;53.614;9.882;2022-12-20T10:34:25;100911.84;;;11.98;84.52
21520;BME280;10921;53.614;9.882;2022-12-20T10:37:13;100901.06;;;12.08;84.87
21520;BME280;10921;53.614;9.882;2022-12-20T10:39:43;100896.84;;;12.15;84.22
21520;BME280;10921;53.614;9.882;2022-12-20T10:42:33;100872.91;;;12.13;84.36
21520;BME280;10921;53.614;9.882;2022-12-20T10:45:02;100898.53;;;12.33;82.68
21520;BME280;10921;53.614;9.882;2022-12-20T10:47:36;100898.63;;;12.42;81.94
21520;BME280;10921;53.614;9.882;2022-12-20T10:50:21;100891.19;;;12.53;81.27
21520;BME280;10921;53.614;9.882;2022-12-20T10:55:36;100874.97;;;12.55;78.61
21520;BME280;10921;53.614;9.882;2022-12-20T10:58:05;100879.78;;;12.69;78.66
21520;BME280;10921;53.614;9.882;2022-12-20T11:00:38;100872.75;;;12.68;77.88
21520;BME280;10921;53.614;9.882;2022-12-20T11:03:18;100872.44;;;12.71;77.84
21520;BME280;10921;53.614;9.882;2022-12-20T11:06:01;100879.59;;;12.62;76.92
21520;BME280;10921;53.614;9.882;2022-12-20T11:08:30;100869.16;;;12.77;76.67
21520;BME280;10921;53.614;9.882;2022-12-20T11:11:12;100876.41;;;12.85;76.21
21520;BME280;10921;53.614;9.882;2022-12-20T11:13:39;100865.69;;;12.85;75.74
21520;BME280;10921;53.614;9.882;2022-12-20T11:16:37;100867.00;;;12.98;75.54
21520;BME280;10921;53.614;9.882;2022-12-20T11:22:12;100858.53;;;13.11;75.66
21520;BME280;10921;53.614;9.882;2022-12-20T11:24:56;100852.34;;;13.11;75.04
21520;BME280;10921;53.614;9.882;2022-12-20T11:37:51;100839.56;;;13.30;74.17
21520;BME280;10921;53.614;9.882;2022-12-20T11:51:08;100829.84;;;13.29;73.19
21520;BME280;10921;53.614;9.882;2022-12-20T11:53:54;100788.88;;;13.11;72.30
21520;BME280;10921;53.614;9.882;2022-12-20T11:56:24;100828.81;;;13.22;72.15
21520;BME280;10921;53.614;9.882;2022-12-20T11:59:01;100828.16;;;13.20;72.10
21520;BME280;10921;53.614;9.882;2022-12-20T12:01:39;100834.03;;;13.24;72.35
21520;BME280;10921;53.614;9.882;2022-12-20T12:04:20;100819.41;;;13.18;72.27
21520;BME280;10921;53.614;9.882;2022-12-20T12:07:01;100826.00;;;13.24;71.96
21520;BME280;10921;53.614;9.882;2022-12-20T12:09:38;100820.94;;;13.21;71.52
21520;BME280;10921;53.614;9.882;2022-12-20T12:12:13;100817.97;;;13.24;71.45
21520;BME280;10921;53.614;9.882;2022-12-20T12:20:23;100823.63;;;13.21;72.27
21520;BME280;10921;53.614;9.882;2022-12-20T12:22:55;100815.34;;;13.14;72.45
21520;BME280;10921;53.614;9.882;2022-12-20T12:25:23;100818.81;;;13.07;73.13
21520;BME280;10921;53.614;9.882;2022-12-20T12:27:49;100819.13;;;13.03;73.40
21520;BME280;10921;53.614;9.882;2022-12-20T12:30:16;100817.03;;;12.89;73.75
21520;BME280;10921;53.614;9.882;2022-12-20T12:32:53;100813.31;;;12.82;74.88
21520;BME280;10921;53.614;9.882;2022-12-20T12:35:46;100792.13;;;12.71;75.26
21520;BME280;10921;53.614;9.882;2022-12-20T12:43:40;100796.31;;;12.48;77.83
21520;BME280;10921;53.614;9.882;2022-12-20T12:46:16;100790.19;;;12.38;78.69
21520;BME280;10921;53.614;9.882;2022-12-20T12:51:38;100783.56;;;12.24;80.33
21520;BME280;10921;53.614;9.882;2022-12-20T12:54:28;100768.13;;;12.18;81.02
21520;BME280;10921;53.614;9.882;2022-12-20T12:57:15;100776.59;;;12.13;81.94
21520;BME280;10921;53.614;9.882;2022-12-20T12:59:47;100762.84;;;12.08;82.34
21520;BME280;10921;53.614;9.882;2022-12-20T13:18:00;100759.94;;;11.84;84.69
21520;BME280;10921;53.614;9.882;2022-12-20T13:20:29;100764.75;;;11.80;84.51
21520;BME280;10921;53.614;9.882;2022-12-20T13:25:39;100747.47;;;11.75;84.96
21520;BME280;10921;53.614;9.882;2022-12-20T13:38:50;100753.09;;;11.72;86.35
21520;BME280;10921;53.614;9.882;2022-12-20T13:41:47;100765.50;;;11.73;86.72
21520;BME280;10921;53.614;9.882;2022-12-20T13:46:49;100739.31;;;11.49;87.01
21520;BME280;10921;53.614;9.882;2022-12-20T13:54:43;100788.06;;;11.60;87.22
21520;BME280;10921;53.614;9.882;2022-12-20T13:57:15;100790.06;;;11.58;87.05
21520;BME280;10921;53.614;9.882;2022-12-20T13:59:46;100756.41;;;11.38;87.16
21520;BME280;10921;53.614;9.882;2022-12-20T14:02:22;100805.94;;;11.60;87.38
21520;BME280;10921;53.614;9.882;2022-12-20T14:04:59;100797.22;;;11.58;87.55
21520;BME280;10921;53.614;9.882;2022-12-20T14:07:28;100795.84;;;11.54;87.18
21520;BME280;10921;53.614;9.882;2022-12-20T14:10:00;100802.72;;;11.56;87.18
21520;BME280;10921;53.614;9.882;2022-12-20T14:12:28;100756.31;;;11.30;87.45
21520;BME280;10921;53.614;9.882;2022-12-20T14:15:19;100802.16;;;11.53;87.90
21520;BME280;10921;53.614;9.882;2022-12-20T14:17:46;100793.59;;;11.49;87.73
21520;BME280;10921;53.614;9.882;2022-12-20T14:22:45;100793.88;;;11.46;88.18
21520;BME280;10921;53.614;9.882;2022-12-20T14:25:24;100785.22;;;11.44;88.47
21520;BME280;10921;53.614;9.882;2022-12-20T14:27:53;100785.50;;;11.41;88.50
21520;BME280;10921;53.614;9.882;2022-12-20T14:30:29;100777.34;;;11.43;88.82
21520;BME280;10921;53.614;9.882;2022-12-20T14:32:57;100777.63;;;11.40;88.52
21520;BME280;10921;53.614;9.882;2022-12-20T14:35:24;100763.28;;;11.41;88.82
21520;BME280;10921;53.614;9.882;2022-12-20T14:37:58;100778.47;;;11.40;89.21
21520;BME280;10921;53.614;9.882;2022-12-20T14:40:26;100772.44;;;11.38;89.46
21520;BME280;10921;53.614;9.882;2022-12-20T14:42:53;100742.16;;;11.20;89.82
21520;BME280;10921;53.614;9.882;2022-12-20T14:45:25;100775.38;;;11.35;90.23
21520;BME280;10921;53.614;9.882;2022-12-20T14:48:01;100768.78;;;11.39;90.44
21520;BME280;10921;53.614;9.882;2022-12-20T14:50:38;100767.22;;;11.37;90.46
21520;BME280;10921;53.614;9.882;2022-12-20T14:53:19;100773.13;;;11.40;90.63
21520;BME280;10921;53.614;9.882;2022-12-20T14:55:48;100778.06;;;11.35;90.72
21520;BME280;10921;53.614;9.882;2022-12-20T14:58:26;100771.59;;;11.38;91.57